Latest Weather Observations for Strathalbyn

IDS60801

Issued at 7:51 am CDT Wednesday 23 October 2019 (issued every 10 minutes, with the page automatically refreshed every 10 minutes)

About weather observations | Map of weather stations | Latest weather observations for SA | Other Formats
Station Details ID: 024580 Name: STRATHALBYN RACECOURSE Lat: -35.28 Lon: 138.89 Height: 58.0 m
Data from the previous 72 hours. | See also: Recent months at Strathalbyn
Date/Time
CDT
Temp
°C
App
Temp
°C
Dew
Point
°C
Rel
Hum
%
Delta-T
°C
Wind Press
QNH
hPa
Press
MSL
hPa
Rain since
9am
mm
Dir  Spd
km/h
Gust
km/h
Spd
kts
Gust
kts
23/07:30am 15.3 13.5 7.3 59 4.0 NE 6 7 3 4 1019.2 1019.2 0.0
23/07:00am 12.1 9.9 5.5 64 3.1 N 6 7 3 4 1019.2 1019.2 0.0
23/06:30am 11.6 8.7 4.6 62 3.2 N 9 11 5 6 1018.9 1018.9 0.0
23/06:00am 12.1 9.6 5.0 62 3.3 N 7 9 4 5 1018.8 1018.8 0.0
23/05:30am 12.1 8.1 4.8 61 3.3 NNW 15 17 8 9 1018.7 1018.7 0.0
23/05:00am 12.0 8.8 5.0 62 3.2 NNW 11 15 6 8 1018.6 1018.6 0.0
23/04:30am 11.7 8.4 4.7 62 3.2 NNW 11 13 6 7 1018.7 1018.7 0.0
23/04:00am 11.7 8.0 4.4 61 3.3 NNW 13 17 7 9 1019.0 1019.0 0.0
23/03:30am 12.8 8.4 4.5 57 3.8 NNW 17 19 9 10 1019.2 1019.2 0.0
23/03:00am 13.5 9.0 4.1 53 4.3 NNW 17 19 9 10 1019.4 1019.4 0.0
23/02:30am 13.7 9.5 4.0 52 4.4 NNW 15 19 8 10 1019.6 1019.6 0.0
23/02:00am 13.1 9.3 4.0 54 4.1 NNW 13 17 7 9 1020.0 1019.9 0.0
23/01:30am 12.5 8.0 4.2 57 3.8 NNW 17 20 9 11 1020.3 1020.2 0.0
23/01:00am 13.2 9.1 4.1 54 4.1 NW 15 17 8 9 1020.5 1020.4 0.0
23/12:30am 13.9 9.5 4.5 53 4.3 NW 17 20 9 11 1020.8 1020.7 0.0
23/12:00am 12.8 9.2 4.8 58 3.7 NNW 13 17 7 9 1021.0 1020.9 0.0
 
Date/Time
CDT
Temp
°C
App
Temp
°C
Dew
Point
°C
Rel
Hum
%
Delta-T
°C
Wind Press
QNH
hPa
Press
MSL
hPa
Rain since
9am
mm
Dir  Spd
km/h
Gust
km/h
Spd
kts
Gust
kts
22/11:30pm 13.7 9.7 4.8 55 4.1 NW 15 17 8 9 1021.1 1021.0 0.0
22/11:00pm 12.8 8.9 5.5 61 3.4 NNW 15 17 8 9 1021.3 1021.2 0.0
22/10:30pm 12.9 10.5 5.3 60 3.5 WNW 7 7 4 4 1021.6 1021.5 0.0
22/10:00pm 13.5 11.1 5.4 58 3.8 WNW 7 9 4 5 1021.5 1021.4 0.0
22/09:30pm 16.8 13.9 4.5 44 5.8 WSW 9 11 5 6 1021.4 1021.3 0.0
22/09:00pm 17.8 15.2 4.4 41 6.3 WSW 7 11 4 6 1021.3 1021.2 0.0
22/08:30pm 19.1 16.5 4.1 37 7.1 SW 7 11 4 6 1021.0 1020.9 0.0
22/08:00pm 19.5 16.6 4.4 37 7.3 SW 9 11 5 6 1020.5 1020.4 0.0
22/07:30pm 21.6 17.8 3.8 31 8.6 SSW 13 13 7 7 1020.3 1020.2 0.0
22/07:00pm 24.2 20.2 2.9 25 10.3 SSE 13 17 7 9 1020.3 1020.2 0.0
22/06:30pm 26.0 21.2 2.7 22 11.3 SSE 17 22 9 12 1020.2 1020.1 0.0
22/06:00pm 27.6 23.1 1.9 19 12.5 SSE 15 20 8 11 1020.1 1020.0 0.0
22/05:30pm 27.7 22.9 0.5 17 12.9 SE 15 20 8 11 1020.0 1019.9 0.0
22/05:00pm 28.2 23.2 -0.9 15 13.5 SSE 15 20 8 11 1020.0 1019.9 0.0
22/04:30pm 28.7 23.8 -0.5 15 13.7 SE 15 22 8 12 1020.1 1020.0 0.0
22/04:00pm 28.8 22.7 -2.3 13 14.2 SSE 20 30 11 16 1020.3 1020.2 0.0
22/03:30pm 29.0 22.4 -0.2 15 13.8 SSE 24 37 13 20 1020.4 1020.3 0.0
22/03:00pm 29.2 25.6 0.8 16 13.7 S 9 20 5 11 1020.8 1020.7 0.0
22/02:30pm 28.9 24.5 0.6 16 13.5 SSE 13 19 7 10 1021.3 1021.2 0.0
22/02:00pm 29.0 24.8 -1.2 14 14.0 SW 11 20 6 11 1021.7 1021.6 0.0
22/01:30pm 30.0 25.8 1.5 16 13.9 WNW 13 22 7 12 1022.0 1021.9 0.0
22/01:00pm 28.8 25.7 1.3 17 13.3 SE 7 13 4 7 1022.3 1022.2 0.0
22/12:30pm 28.4 25.2 1.0 17 13.1 SSE 7 15 4 8 1022.6 1022.5 0.0
22/12:00pm 28.4 25.1 2.6 19 12.7 NE 9 17 5 9 1023.1 1023.0 0.0
22/11:30am 27.8 25.1 3.5 21 12.1 ESE 7 15 4 8 1023.4 1023.3 0.0
22/11:00am 26.2 23.2 2.2 21 11.6 N 7 11 4 6 1023.7 1023.6 0.0
22/10:30am 25.9 22.3 3.2 23 11.1 ENE 11 19 6 10 1024.0 1023.9 0.0
22/10:00am 24.7 21.3 6.0 30 9.6 ENE 13 19 7 10 1024.1 1024.0 0.0
22/09:30am 22.6 19.0 5.1 32 8.7 NE 13 19 7 10 1024.3 1024.2 0.0
22/09:00am 20.0 17.5 6.7 42 6.7 NNE 9 11 5 6 1024.3 1024.2 0.0
22/08:30am 17.8 15.6 6.3 47 5.7 NNE 7 9 4 5 1024.3 1024.2 0.0
22/08:00am 14.7 12.6 6.8 59 3.9 N 7 9 4 5 1024.4 1024.3 0.0
22/07:30am 11.5 9.3 6.2 70 2.5 NNW 7 11 4 6 1024.4 1024.3 0.0
22/07:00am 9.5 6.8 5.7 77 1.7 N 9 11 5 6 1024.2 1024.1 0.0
22/06:30am 8.5 5.6 4.7 77 1.7 N 9 13 5 7 1023.9 1023.8 0.0
22/06:00am 8.5 4.5 4.7 77 1.7 NNW 15 17 8 9 1023.7 1023.6 0.0
22/05:30am 7.9 4.2 4.7 80 1.4 NNW 13 17 7 9 1023.5 1023.4 0.0
22/05:00am 7.8 4.5 4.7 81 1.4 N 11 11 6 6 1023.8 1023.7 0.0
22/04:30am 8.3 5.5 5.2 81 1.4 N 9 11 5 6 1023.6 1023.5 0.0
22/04:00am 8.0 5.5 4.9 81 1.4 NNW 7 9 4 5 1023.6 1023.5 0.0
22/03:30am 8.6 5.9 5.4 80 1.4 N 9 11 5 6 1023.6 1023.5 0.0
22/03:00am 8.7 5.5 4.9 77 1.7 NNW 11 15 6 8 1023.8 1023.7 0.0
22/02:30am 9.4 6.7 5.4 76 1.8 NNW 9 11 5 6 1023.9 1023.8 0.0
22/02:00am 9.4 7.2 5.2 75 1.9 NNW 6 11 3 6 1024.3 1024.2 0.0
22/01:30am 9.6 6.1 5.4 75 1.9 NNW 13 17 7 9 1024.6 1024.5 0.0
22/01:00am 9.7 5.8 5.3 74 2.0 NW 15 19 8 10 1024.8 1024.7 0.0
22/12:30am 10.3 6.1 5.7 73 2.1 NW 17 20 9 11 1024.9 1024.8 0.0
22/12:00am 9.7 5.9 5.9 77 1.7 NNW 15 17 8 9 1025.3 1025.2 0.0
 
Date/Time
CDT
Temp
°C
App
Temp
°C
Dew
Point
°C
Rel
Hum
%
Delta-T
°C
Wind Press
QNH
hPa
Press
MSL
hPa
Rain since
9am
mm
Dir  Spd
km/h
Gust
km/h
Spd
kts
Gust
kts
21/11:30pm 9.9 6.2 6.4 79 1.6 NNW 15 17 8 9 1025.4 1025.3 0.0
21/11:00pm 10.1 7.2 6.6 79 1.6 NW 11 13 6 7 1025.7 1025.6 0.0
21/10:30pm 10.3 7.9 7.0 80 1.6 NNW 9 11 5 6 1025.9 1025.8 0.0
21/10:00pm 10.8 8.9 7.5 80 1.6 NNW 7 9 4 5 1025.9 1025.8 0.0
21/09:30pm 11.5 10.9 7.6 77 1.9 CALM 0 0 0 0 1025.9 1025.8 0.0
21/09:00pm 13.0 12.2 8.3 73 2.3 WSW 2 7 1 4 1025.8 1025.7 0.0
21/08:30pm 14.2 11.7 8.4 68 2.9 WSW 11 13 6 7 1025.6 1025.5 0.0
21/08:00pm 15.5 13.3 9.2 66 3.2 SW 11 13 6 7 1025.4 1025.3 0.0
21/07:30pm 17.1 14.8 9.0 59 4.2 SSW 11 13 6 7 1025.2 1025.1 0.0
21/07:00pm 19.0 15.3 7.8 48 5.7 SSW 17 20 9 11 1025.1 1025.0 0.0
21/06:30pm 20.6 17.0 8.3 45 6.4 SSE 17 20 9 11 1025.1 1025.0 0.0
21/06:00pm 21.3 17.3 6.8 39 7.4 SSE 17 20 9 11 1024.9 1024.8 0.0
21/05:30pm 22.1 18.1 6.7 37 7.8 SE 17 20 9 11 1024.7 1024.6 0.0
21/05:00pm 22.8 18.5 5.3 32 8.8 SE 17 20 9 11 1024.8 1024.7 0.0
21/04:30pm 23.0 18.5 4.0 29 9.3 SSE 17 22 9 12 1024.8 1024.7 0.0
21/04:00pm 23.8 18.8 4.7 29 9.5 SSE 20 30 11 16 1024.8 1024.7 0.0
21/03:30pm 24.0 20.1 5.4 30 9.4 SE 15 20 8 11 1024.9 1024.8 0.0
21/03:00pm 24.1 19.6 5.9 31 9.3 SE 19 28 10 15 1025.3 1025.2 0.0
21/02:30pm 24.3 19.2 6.1 31 9.3 SSE 22 32 12 17 1025.4 1025.3 0.0
21/02:00pm 23.7 20.7 6.0 32 9.0 SW 11 17 6 9 1025.9 1025.8 0.0
21/01:30pm 23.6 21.1 6.4 33 8.8 SSE 9 15 5 8 1026.1 1026.1 0.0
21/01:00pm 22.9 20.1 7.1 36 8.2 SSW 11 19 6 10 1026.4 1026.4 0.0
21/12:30pm 22.1 19.9 6.3 36 8.0 S 7 13 4 7 1026.8 1026.8 0.0
21/12:00pm 21.5 19.5 6.2 37 7.7 E 6 13 3 7 1027.3 1027.3 0.0
21/11:30am 21.1 18.6 6.6 39 7.3 ENE 9 19 5 10 1027.7 1027.7 0.0
21/11:00am 18.7 15.4 6.2 44 6.2 NE 13 20 7 11 1028.0 1028.0 0.0
21/10:30am 16.9 13.2 6.4 50 5.1 ENE 15 20 8 11 1028.4 1028.4 0.0
21/10:00am 15.8 11.4 6.5 54 4.5 NE 19 26 10 14 1028.7 1028.7 0.0
21/09:30am 14.5 10.6 7.1 61 3.6 NE 17 20 9 11 1029.0 1029.0 0.0
21/09:00am 13.2 9.5 6.3 63 3.3 NE 15 19 8 10 1029.1 1029.1 0.0
21/08:30am 12.0 8.3 6.3 68 2.7 NE 15 19 8 10 1029.1 1029.1 0.0
21/08:00am 10.0 7.4 6.2 77 1.8 N 9 11 5 6 1029.0 1029.0 0.0
21/07:30am 7.4 4.2 5.2 86 1.0 N 11 15 6 8 1028.8 1028.8 0.0
21/07:00am 6.1 2.4 4.6 90 0.6 N 13 15 7 8 1028.6 1028.6 0.0
21/06:30am 5.3 2.0 4.6 95 0.3 NNW 11 13 6 7 1028.3 1028.3 0.0
21/06:00am 5.0 1.5 3.7 91 0.5 NNW 11 13 6 7 1028.2 1028.2 0.0
21/05:30am 4.7 2.8 2.9 88 0.7 N 2 6 1 3 1028.2 1028.2 0.0
21/05:00am 5.2 1.7 3.4 88 0.7 NNW 11 13 6 7 1028.2 1028.2 0.0
21/04:30am 5.8 2.0 4.0 88 0.8 NNW 13 15 7 8 1028.1 1028.1 0.0
21/04:00am 6.2 2.2 5.0 92 0.5 NNW 15 17 8 9 1028.1 1028.1 0.0
21/03:30am 5.9 2.2 4.7 92 0.5 N 13 15 7 8 1027.9 1027.9 0.0
21/03:00am 5.6 2.6 4.1 90 0.6 N 9 11 5 6 1027.9 1027.9 0.0
21/02:30am 5.4 2.3 3.6 88 0.7 NNW 9 9 5 5 1028.0 1028.0 0.0
21/02:00am 6.4 2.8 5.2 92 0.5 NNW 13 15 7 8 1028.7 1028.7 0.0
21/01:30am 6.4 3.5 4.9 90 0.6 N 9 13 5 7 1029.2 1029.2 0.0
21/01:00am 6.5 3.2 4.7 88 0.8 NNW 11 13 6 7 1029.9 1029.9 0.0
21/12:30am 6.7 3.8 4.9 88 0.8 NNW 9 13 5 7 1030.2 1030.2 0.0
21/12:00am 6.9 4.0 4.6 85 1.0 NNW 9 9 5 5 1030.4 1030.4 0.0
 
Date/Time
CDT
Temp
°C
App
Temp
°C
Dew
Point
°C
Rel
Hum
%
Delta-T
°C
Wind Press
QNH
hPa
Press
MSL
hPa
Rain since
9am
mm
Dir  Spd
km/h
Gust
km/h
Spd
kts
Gust
kts
20/11:30pm 8.0 5.7 5.5 84 1.1 NNW 7 9 4 5 1030.3 1030.3 0.0
20/11:00pm 8.9 7.6 6.2 83 1.2 NW 2 6 1 3 1030.4 1030.4 0.0
20/10:30pm 8.6 6.6 6.1 84 1.1 W 6 6 3 3 1030.5 1030.5 0.0
20/10:00pm 8.8 6.6 5.4 79 1.5 SW 6 7 3 4 1030.5 1030.5 0.0
20/09:30pm 9.2 6.9 5.6 78 1.6 SW 7 9 4 5 1030.3 1030.3 0.0
20/09:00pm 9.2 6.8 5.4 77 1.7 SW 7 9 4 5 1029.9 1029.9 0.0
20/08:30pm 10.5 7.9 6.3 75 1.9 SSW 9 11 5 6 1029.7 1029.7 0.0
20/08:00pm 10.3 7.3 6.1 75 2.0 S 11 13 6 7 1029.4 1029.4 0.0
20/07:30pm 11.9 8.6 6.2 68 2.7 S 13 15 7 8 1029.1 1029.1 0.0
20/07:00pm 13.5 9.0 6.1 61 3.5 S 19 24 10 13 1028.8 1028.8 0.0
20/06:30pm 14.3 9.6 6.2 58 3.9 S 20 24 11 13 1028.6 1028.6 0.0
20/06:00pm 14.9 10.2 6.2 56 4.2 S 20 24 11 13 1028.4 1028.4 0.0
20/05:30pm 15.8 11.2 6.5 54 4.5 S 20 32 11 17 1028.2 1028.2 0.0
20/05:00pm 16.2 11.2 6.3 52 4.8 S 22 32 12 17 1028.1 1028.1 0.0
20/04:30pm 16.4 11.3 6.2 51 4.9 S 22 33 12 18 1028.0 1028.0 0.0
20/04:00pm 17.4 12.5 6.9 50 5.2 SSW 22 32 12 17 1027.9 1027.9 0.0
20/03:30pm 17.6 12.7 6.8 49 5.3 S 22 32 12 17 1027.9 1027.9 0.0
20/03:00pm 17.5 12.8 6.1 47 5.6 SSW 20 30 11 16 1028.0 1028.0 0.0
20/02:30pm 18.1 13.6 6.3 46 5.8 SSW 19 28 10 15 1028.2 1028.2 0.0
20/02:00pm 17.9 14.2 6.1 46 5.8 S 15 26 8 14 1028.2 1028.2 0.0
20/01:30pm 19.1 16.2 6.6 44 6.2 SSW 11 22 6 12 1028.1 1028.1 0.0
20/01:00pm 17.6 14.8 5.2 44 6.0 SW 9 17 5 9 1028.3 1028.3 0.0
20/12:30pm 16.8 13.2 5.1 46 5.6 SSW 13 22 7 12 1028.4 1028.4 0.0
20/12:00pm 17.2 13.4 5.8 47 5.5 S 15 26 8 14 1028.6 1028.6 0.0
20/11:30am 16.0 12.3 4.4 46 5.4 S 13 20 7 11 1028.9 1028.9 0.0
20/11:00am 16.4 12.2 5.7 49 5.2 SSW 17 26 9 14 1029.2 1029.2 0.0
20/10:30am 15.6 12.2 4.0 46 5.3 SSE 11 19 6 10 1029.3 1029.3 0.0
20/10:00am 14.0 11.0 4.3 52 4.5 SW 9 13 5 7 1029.4 1029.4 0.0
20/09:30am 14.6 10.5 4.6 51 4.6 S 15 22 8 12 1029.4 1029.4 0.0
20/09:00am 14.4 11.1 6.3 58 3.9 SW 13 22 7 12 1029.5 1029.5 0.0
20/08:30am 13.7 10.4 6.6 62 3.4 SW 13 20 7 11 1029.2 1029.2 0.0
20/08:00am 11.6 8.7 6.7 72 2.3 W 11 15 6 8 1029.1 1029.1 0.0

Other formats

Comma delimited format used in spreadsheet applications
http://www.bom.gov.au/fwo/IDS60801/IDS60801.94814.axf

JavaScript Object Notation format (JSON) in row-major order
http://www.bom.gov.au/fwo/IDS60801/IDS60801.94814.json

Data quality

Most of these data are generated automatically and are frequently updated. Quality checks on data are not normally performed. It is possible for incorrect values to appear. Refer to information at About Latest Weather Observations and please check the disclaimer before using these data.